SAS63J EKCH-EDDL
Flight info
| Callsign | SAS63J |
|---|---|
| Flight time | N/A |
| Altitude | 34000 |
| Route | NEXEN T503 GIMRU DCT MICOS DCT KEGAB DCT DENOL/N0409F260 T851 HALME HALME1A |
| Aircraft | E195/M-SDE3GILORVW/S |
Departure
| Time | 2026-05-05 11:48 |
|---|---|
| Airport | Copenhagen Kastrup Airport (EKCH) |
Arrival
| Time | N/A |
|---|---|
| Airport | Düsseldorf Airport (EDDL) |
| Time | Latitude | Longitude | Altitude | Speed | Heading |
|---|---|---|---|---|---|
| 2026-05-05 11:29 | 55.62643 | 12.64572 | 17 ft | 0 kts | 282° |
| 2026-05-05 11:37 | 55.62641 | 12.64591 | 17 ft | 2 kts | 281° |
| 2026-05-05 11:37 | 55.62638 | 12.64617 | 17 ft | 2 kts | 282° |
| 2026-05-05 11:37 | 55.62638 | 12.64643 | 17 ft | 2 kts | 247° |
| 2026-05-05 11:38 | 55.62647 | 12.64665 | 17 ft | 2 kts | 217° |
| 2026-05-05 11:38 | 55.62661 | 12.64676 | 17 ft | 2 kts | 187° |
| 2026-05-05 11:38 | 55.62672 | 12.64678 | 17 ft | 0 kts | 192° |
| 2026-05-05 11:38 | 55.62674 | 12.64679 | 17 ft | 0 kts | 193° |
| 2026-05-05 11:41 | 55.62666 | 12.64676 | 17 ft | 2 kts | 193° |
| 2026-05-05 11:41 | 55.62646 | 12.64667 | 17 ft | 3 kts | 193° |
| 2026-05-05 11:42 | 55.62613 | 12.64654 | 17 ft | 5 kts | 192° |
| 2026-05-05 11:42 | 55.62568 | 12.64641 | 17 ft | 7 kts | 175° |
| 2026-05-05 11:42 | 55.62512 | 12.64652 | 17 ft | 8 kts | 175° |
| 2026-05-05 11:42 | 55.62445 | 12.64668 | 16 ft | 11 kts | 170° |
| 2026-05-05 11:43 | 55.62369 | 12.64675 | 15 ft | 10 kts | 179° |
| 2026-05-05 11:43 | 55.62308 | 12.64746 | 14 ft | 12 kts | 122° |
| 2026-05-05 11:43 | 55.62242 | 12.64789 | 14 ft | 11 kts | 187° |
| 2026-05-05 11:43 | 55.62158 | 12.64714 | 14 ft | 15 kts | 213° |
| 2026-05-05 11:44 | 55.62065 | 12.64607 | 14 ft | 16 kts | 213° |
| 2026-05-05 11:44 | 55.61959 | 12.64512 | 14 ft | 17 kts | 190° |
| 2026-05-05 11:44 | 55.61830 | 12.64533 | 14 ft | 19 kts | 169° |
| 2026-05-05 11:44 | 55.61692 | 12.64562 | 14 ft | 20 kts | 200° |
| 2026-05-05 11:45 | 55.61563 | 12.64439 | 14 ft | 21 kts | 213° |
| 2026-05-05 11:45 | 55.61431 | 12.64288 | 15 ft | 22 kts | 214° |
| 2026-05-05 11:45 | 55.61298 | 12.64136 | 15 ft | 24 kts | 213° |
| 2026-05-05 11:45 | 55.61152 | 12.63966 | 15 ft | 24 kts | 213° |
| 2026-05-05 11:46 | 55.61008 | 12.63800 | 15 ft | 25 kts | 214° |
| 2026-05-05 11:46 | 55.60861 | 12.63631 | 14 ft | 26 kts | 213° |
| 2026-05-05 11:46 | 55.60704 | 12.63452 | 14 ft | 27 kts | 214° |
| 2026-05-05 11:46 | 55.60588 | 12.63294 | 13 ft | 20 kts | 221° |
| 2026-05-05 11:47 | 55.60472 | 12.63249 | 12 ft | 16 kts | 139° |
| 2026-05-05 11:47 | 55.60407 | 12.63397 | 11 ft | 7 kts | 100° |
| 2026-05-05 11:47 | 55.60426 | 12.63480 | 11 ft | 9 kts | 41° |
| 2026-05-05 11:47 | 55.60576 | 12.63711 | 14 ft | 62 kts | 41° |
| 2026-05-05 11:48 | 55.61850 | 12.65690 | 178 ft | 159 kts | 39° |
| 2026-05-05 11:48 | 55.62708 | 12.66966 | 765 ft | 170 kts | 40° |
| 2026-05-05 11:48 | 55.63591 | 12.68359 | 1605 ft | 174 kts | 39° |
| 2026-05-05 11:49 | 55.64547 | 12.69857 | 2184 ft | 193 kts | 39° |
| 2026-05-05 11:49 | 55.65601 | 12.71442 | 2812 ft | 210 kts | 34° |